Time;durP1;ratioP1;P1;durP2;ratioP2;P2;SDS_P1;SDS_P2;PMS_P1;PMS_P2;Temp;Humidity;BMP_temperature;BMP_pressure;BME280_temperature;BME280_humidity;BME280_pressure;Samples;Min_cycle;Max_cycle;Signal;HPM_P1;HPM_P2
2022/09/29 00:00:34;;;;;;;7.30;6.28;;;6.40;99.90;;;;;;5045421;28;20072;-47
2022/09/29 00:03:00;;;;;;;9.15;6.45;;;6.30;99.90;;;;;;5077556;28;20055;-44
2022/09/29 00:05:26;;;;;;;7.82;6.50;;;6.40;99.90;;;;;;5073489;28;20068;-45
2022/09/29 00:07:53;;;;;;;7.50;6.03;;;6.40;99.90;;;;;;5072753;28;20104;-43
2022/09/29 00:10:19;;;;;;;7.18;5.80;;;6.30;99.90;;;;;;5076191;28;20059;-47
2022/09/29 00:12:46;;;;;;;7.80;6.05;;;6.30;99.90;;;;;;5058146;28;20163;-46
2022/09/29 00:15:12;;;;;;;7.88;6.25;;;6.30;99.90;;;;;;5059859;28;20036;-39
2022/09/29 00:17:39;;;;;;;7.30;6.40;;;6.30;99.90;;;;;;5062384;28;20051;-47
2022/09/29 00:20:05;;;;;;;6.78;6.07;;;6.20;99.90;;;;;;5063044;28;20113;-46
2022/09/29 00:22:31;;;;;;;6.95;6.00;;;6.20;99.90;;;;;;5086780;28;20074;-39
2022/09/29 00:24:57;;;;;;;7.60;6.75;;;6.20;99.90;;;;;;5078371;28;20040;-39
2022/09/29 00:27:24;;;;;;;7.20;6.38;;;6.20;99.90;;;;;;5081478;28;20074;-38
2022/09/29 00:29:50;;;;;;;7.63;6.90;;;6.20;99.90;;;;;;5079005;28;20048;-39
2022/09/29 00:32:16;;;;;;;7.97;6.95;;;6.10;99.90;;;;;;5060490;28;20122;-39
2022/09/29 00:34:43;;;;;;;8.40;6.70;;;6.20;99.90;;;;;;5070203;28;20105;-40
2022/09/29 00:37:10;;;;;;;7.88;6.88;;;6.10;99.90;;;;;;5082065;28;20803;-38
2022/09/29 00:39:36;;;;;;;11.00;7.25;;;6.10;99.90;;;;;;5032518;28;20052;-38
2022/09/29 00:42:02;;;;;;;8.13;7.32;;;6.10;99.90;;;;;;5053629;28;20529;-39
2022/09/29 00:45:12;;;;;;;7.97;6.80;;;6.10;99.90;;;;;;5062765;28;20059;-38
2022/09/29 00:47:42;;;;;;;8.77;7.97;;;6.00;99.90;;;;;;5023464;28;20044;-38
2022/09/29 00:50:26;;;;;;;8.43;7.60;;;6.00;99.90;;;;;;5082745;28;20040;-39
2022/09/29 00:53:00;;;;;;;8.80;7.80;;;6.00;99.90;;;;;;5063189;28;20093;-38
2022/09/29 00:55:35;;;;;;;10.50;8.00;;;6.00;99.90;;;;;;5064145;28;20557;-39
2022/09/29 00:58:22;;;;;;;8.00;7.20;;;6.00;99.90;;;;;;5079473;28;20048;-39
2022/09/29 01:00:49;;;;;;;8.35;7.47;;;5.90;99.90;;;;;;5081206;28;20165;-39
2022/09/29 01:03:19;;;;;;;9.77;7.75;;;6.00;99.90;;;;;;5045005;28;20629;-39
2022/09/29 01:06:10;;;;;;;9.45;7.75;;;5.90;99.90;;;;;;5060664;28;20051;-39
2022/09/29 01:09:12;;;;;;;11.98;8.50;;;5.90;99.90;;;;;;5042937;28;20056;-39
2022/09/29 01:11:39;;;;;;;9.52;8.50;;;5.90;99.90;;;;;;5009498;28;20044;-39
2022/09/29 01:14:08;;;;;;;9.75;8.75;;;5.90;99.90;;;;;;5054755;28;20530;-38
2022/09/29 01:16:36;;;;;;;9.23;7.47;;;5.90;99.90;;;;;;5057299;28;20076;-39
2022/09/29 01:19:08;;;;;;;10.75;8.18;;;5.90;99.90;;;;;;5052814;28;20110;-38
2022/09/29 01:21:34;;;;;;;8.45;7.55;;;5.90;99.90;;;;;;5074553;28;20044;-38
2022/09/29 01:24:21;;;;;;;9.07;7.55;;;5.90;99.90;;;;;;5059756;28;20063;-39
2022/09/29 01:27:12;;;;;;;8.60;7.68;;;5.80;99.90;;;;;;5057795;28;20102;-39
2022/09/29 01:30:34;;;;;;;8.27;7.47;;;5.80;99.90;;;;;;5061544;28;20728;-39
2022/09/29 01:33:12;;;;;;;11.43;8.55;;;5.80;99.90;;;;;;4981928;28;20041;-38
2022/09/29 01:35:38;;;;;;;9.10;8.20;;;5.70;99.90;;;;;;5043371;28;20149;-38
2022/09/29 01:38:41;;;;;;;9.43;8.50;;;5.70;99.90;;;;;;5064117;28;20119;-38
2022/09/29 01:41:37;;;;;;;23.20;7.95;;;5.70;99.90;;;;;;5024233;28;20044;-45
2022/09/29 01:44:08;;;;;;;8.32;6.22;;;5.70;99.90;;;;;;5058448;28;20527;-48
2022/09/29 01:46:40;;;;;;;6.93;5.30;;;5.60;99.90;;;;;;5062571;28;20488;-48
2022/09/29 01:49:07;;;;;;;;;;;5.60;99.90;;;;;;5060709;28;20897;-47
2022/09/29 01:52:02;;;;;;;5.65;5.03;;;5.60;99.90;;;;;;5057803;28;20031;-39
2022/09/29 01:54:50;;;;;;;7.90;5.70;;;5.50;99.90;;;;;;5022413;28;20044;-41
2022/09/29 01:57:20;;;;;;;14.25;6.72;;;5.40;99.90;;;;;;5055151;28;20080;-38
2022/09/29 02:00:08;;;;;;;10.85;6.90;;;5.50;99.90;;;;;;5057298;28;20060;-39
2022/09/29 02:02:59;;;;;;;18.92;7.40;;;5.50;99.90;;;;;;5061820;28;20878;-39
2022/09/29 02:05:37;;;;;;;10.52;7.20;;;5.50;99.90;;;;;;5053438;28;20048;-38
2022/09/29 02:08:15;;;;;;;14.45;7.88;;;5.50;99.90;;;;;;5077918;28;20120;-39
2022/09/29 02:10:52;;;;;;;20.80;8.10;;;5.50;99.90;;;;;;5058706;28;20044;-48
2022/09/29 02:13:22;;;;;;;53.70;9.82;;;5.50;99.90;;;;;;5059594;28;20041;-44
2022/09/29 02:15:50;;;;;;;58.40;9.32;;;5.50;99.90;;;;;;5044645;28;20728;-45
2022/09/29 02:18:25;;;;;;;53.47;10.05;;;5.50;99.90;;;;;;5045862;28;20043;-44
2022/09/29 02:20:52;;;;;;;37.45;8.85;;;5.40;99.90;;;;;;5081854;28;20048;-38
2022/09/29 02:23:18;;;;;;;37.50;8.60;;;5.40;99.90;;;;;;5060393;28;20147;-39
2022/09/29 02:25:46;;;;;;;26.88;8.25;;;5.50;99.90;;;;;;5057177;28;20588;-39
2022/09/29 02:28:13;;;;;;;40.30;9.18;;;5.40;99.90;;;;;;5061900;28;20081;-39
2022/09/29 02:30:39;;;;;;;18.38;7.75;;;5.40;99.90;;;;;;5079115;28;20054;-39
2022/09/29 02:33:05;;;;;;;33.28;7.60;;;5.40;99.90;;;;;;5061292;28;20135;-39
2022/09/29 02:35:54;;;;;;;39.55;8.77;;;5.40;99.90;;;;;;5076140;28;20083;-38
2022/09/29 02:38:36;;;;;;;39.35;8.88;;;5.40;99.90;;;;;;5077868;28;20098;-38
2022/09/29 02:41:24;;;;;;;31.02;8.77;;;5.40;99.90;;;;;;5070421;28;20039;-42
2022/09/29 02:44:16;;;;;;;52.42;10.20;;;5.40;99.90;;;;;;5041625;28;20048;-39
2022/09/29 02:47:12;;;;;;;45.63;9.07;;;5.50;99.90;;;;;;5047022;28;20110;-47
2022/09/29 02:50:00;;;;;;;45.65;10.70;;;5.40;99.90;;;;;;5055801;28;20052;-46
2022/09/29 02:53:01;;;;;;;67.57;12.80;;;5.50;99.90;;;;;;5063451;28;20052;-44
2022/09/29 02:55:48;;;;;;;73.95;11.70;;;5.50;99.90;;;;;;5027510;28;20047;-39
2022/09/29 02:58:19;;;;;;;67.95;11.68;;;5.50;99.90;;;;;;5076154;28;20170;-39
2022/09/29 03:00:46;;;;;;;31.67;10.67;;;5.50;99.90;;;;;;5055814;28;20055;-39
2022/09/29 03:03:12;;;;;;;74.88;13.93;;;5.50;99.90;;;;;;5059584;28;20140;-39
2022/09/29 03:05:39;;;;;;;84.70;16.35;;;5.50;99.90;;;;;;5059909;28;20497;-38
2022/09/29 03:08:05;;;;;;;48.42;11.63;;;5.50;99.90;;;;;;5074220;28;20073;-39
2022/09/29 03:10:31;;;;;;;59.28;12.55;;;5.40;99.90;;;;;;5069684;28;20048;-39
2022/09/29 03:12:57;;;;;;;68.43;13.25;;;5.40;99.90;;;;;;5079003;28;20056;-38
2022/09/29 03:15:23;;;;;;;37.45;10.68;;;5.40;99.90;;;;;;5043752;28;20455;-38
2022/09/29 03:17:49;;;;;;;82.20;12.43;;;5.40;99.90;;;;;;5042038;28;20050;-38
2022/09/29 03:20:16;;;;;;;41.70;11.40;;;5.40;99.90;;;;;;5033881;28;20058;-38
2022/09/29 03:22:42;;;;;;;65.10;11.38;;;5.30;99.90;;;;;;5051299;28;20087;-39
2022/09/29 03:25:08;;;;;;;42.78;9.98;;;5.30;99.90;;;;;;5059136;28;20035;-39
2022/09/29 03:27:37;;;;;;;43.25;9.68;;;5.30;99.90;;;;;;5040568;28;20056;-39
2022/09/29 03:30:04;;;;;;;61.22;10.10;;;5.30;99.90;;;;;;5060693;28;20048;-38
2022/09/29 03:32:30;;;;;;;41.05;10.15;;;5.20;99.90;;;;;;5053013;28;20091;-39
2022/09/29 03:34:56;;;;;;;35.90;10.98;;;5.30;99.90;;;;;;5076637;28;20052;-38
2022/09/29 03:37:22;;;;;;;56.35;11.93;;;5.20;99.90;;;;;;5061955;28;20759;-38
2022/09/29 03:39:48;;;;;;;56.25;12.23;;;5.20;99.90;;;;;;5073954;28;20048;-39
2022/09/29 03:42:15;;;;;;;43.03;13.10;;;5.20;99.90;;;;;;5055810;28;20105;-39
2022/09/29 03:44:41;;;;;;;37.28;10.25;;;5.20;99.90;;;;;;5045056;28;20052;-39
2022/09/29 03:47:07;;;;;;;54.05;12.48;;;5.10;99.90;;;;;;5022043;28;20056;-39
2022/09/29 03:49:34;;;;;;;38.47;11.70;;;5.10;99.90;;;;;;5077659;28;20044;-40
2022/09/29 03:52:01;;;;;;;39.80;12.65;;;5.10;99.90;;;;;;5073721;28;20063;-41
2022/09/29 03:54:27;;;;;;;21.73;10.98;;;5.10;99.90;;;;;;5079022;28;20490;-38
2022/09/29 03:56:53;;;;;;;29.65;11.13;;;5.10;99.90;;;;;;5025236;28;20039;-39
2022/09/29 03:59:19;;;;;;;28.27;11.45;;;5.10;99.90;;;;;;5074309;28;20048;-39
2022/09/29 04:01:45;;;;;;;27.42;11.40;;;5.00;99.90;;;;;;5079451;28;20052;-46
2022/09/29 04:04:11;;;;;;;28.95;11.57;;;5.10;99.90;;;;;;5057843;28;20059;-47
2022/09/29 04:06:37;;;;;;;40.03;13.57;;;5.10;99.90;;;;;;5077869;28;20057;-44
2022/09/29 04:09:04;;;;;;;35.33;13.70;;;5.10;99.90;;;;;;5067715;28;20544;-47
2022/09/29 04:11:30;;;;;;;27.63;13.88;;;5.20;99.90;;;;;;5027798;28;20055;-45
2022/09/29 04:13:56;;;;;;;24.55;12.73;;;5.20;99.90;;;;;;5079757;28;20055;-45
2022/09/29 04:16:22;;;;;;;41.25;15.10;;;5.20;99.90;;;;;;5056363;28;20072;-45
2022/09/29 04:18:48;;;;;;;31.17;14.45;;;5.20;99.90;;;;;;5055842;28;20048;-44
2022/09/29 04:21:17;;;;;;;43.28;13.63;;;5.30;99.90;;;;;;5042694;28;20053;-44
2022/09/29 04:23:43;;;;;;;37.40;13.40;;;5.20;99.90;;;;;;5065360;28;20052;-44
2022/09/29 04:26:13;;;;;;;33.75;11.52;;;5.20;99.90;;;;;;5058497;28;20048;-45
2022/09/29 04:28:39;;;;;;;22.15;12.32;;;5.20;99.90;;;;;;5056805;28;20052;-44
2022/09/29 04:31:05;;;;;;;24.40;11.38;;;5.20;99.90;;;;;;5007450;28;20117;-47
2022/09/29 04:33:32;;;;;;;31.95;11.00;;;5.20;99.90;;;;;;5035992;28;20048;-48
2022/09/29 04:36:01;;;;;;;83.88;15.27;;;5.20;99.90;;;;;;5064173;28;20044;-45
2022/09/29 04:38:27;;;;;;;67.82;12.02;;;5.10;99.90;;;;;;5041461;28;20056;-44
2022/09/29 04:40:53;;;;;;;55.65;10.65;;;5.10;99.90;;;;;;5037148;28;20073;-44
2022/09/29 04:43:19;;;;;;;72.05;11.55;;;5.10;99.90;;;;;;5054962;28;20052;-44
2022/09/29 04:45:45;;;;;;;54.25;10.57;;;5.10;99.90;;;;;;5058597;28;20059;-47
2022/09/29 04:48:11;;;;;;;114.95;15.65;;;5.00;99.90;;;;;;5061214;28;20059;-44
2022/09/29 04:50:38;;;;;;;104.40;16.05;;;5.00;99.90;;;;;;5076252;28;20056;-39
2022/09/29 04:53:05;;;;;;;107.00;16.88;;;4.90;99.90;;;;;;5079041;28;20059;-39
2022/09/29 04:55:31;;;;;;;76.53;12.88;;;4.90;99.90;;;;;;5078138;28;20051;-40
2022/09/29 04:57:57;;;;;;;77.90;13.82;;;4.90;99.90;;;;;;5070150;28;20060;-37
2022/09/29 05:00:23;;;;;;;52.55;13.18;;;4.90;99.90;;;;;;5076583;28;20055;-38
2022/09/29 05:02:49;;;;;;;49.25;10.27;;;4.80;99.90;;;;;;5077685;28;20052;-38
2022/09/29 05:05:16;;;;;;;17.88;9.13;;;4.70;99.90;;;;;;5046863;28;20048;-38
2022/09/29 05:07:43;;;;;;;37.05;11.38;;;4.70;99.90;;;;;;5068386;28;20155;-38
2022/09/29 05:10:09;;;;;;;20.65;9.10;;;4.60;99.90;;;;;;5056016;28;20481;-39
2022/09/29 05:12:35;;;;;;;14.77;9.55;;;4.50;99.90;;;;;;5055857;28;20041;-38
2022/09/29 05:15:03;;;;;;;9.02;8.15;;;4.50;99.90;;;;;;5073793;28;20053;-40
2022/09/29 05:17:29;;;;;;;9.40;8.57;;;4.40;99.90;;;;;;5056359;28;20055;-38
2022/09/29 05:19:56;;;;;;;10.20;9.30;;;4.40;99.90;;;;;;5053182;28;20052;-38
2022/09/29 05:22:23;;;;;;;10.45;9.43;;;4.40;99.90;;;;;;5030309;28;20040;-38
2022/09/29 05:24:53;;;;;;;10.18;9.25;;;4.30;99.90;;;;;;5062462;28;20089;-39
2022/09/29 05:27:21;;;;;;;10.57;9.57;;;4.30;99.90;;;;;;5040363;28;20055;-38
2022/09/29 05:29:47;;;;;;;10.05;9.15;;;4.30;99.90;;;;;;5060205;28;20130;-38
2022/09/29 05:32:17;;;;;;;10.85;9.75;;;4.30;99.90;;;;;;5054984;28;20131;-38
2022/09/29 05:34:46;;;;;;;10.57;9.65;;;4.20;99.90;;;;;;5093042;28;20055;-46
2022/09/29 05:37:12;;;;;;;9.85;8.95;;;4.20;99.90;;;;;;5045601;28;20044;-44
2022/09/29 05:39:38;;;;;;;9.45;8.65;;;4.20;99.90;;;;;;5072512;28;20073;-44
2022/09/29 05:42:09;;;;;;;9.93;9.02;;;4.20;99.90;;;;;;5043690;28;20064;-45
2022/09/29 05:44:35;;;;;;;11.93;10.82;;;4.30;99.90;;;;;;5072902;28;20442;-43
2022/09/29 05:47:01;;;;;;;11.77;10.57;;;4.30;99.90;;;;;;5053755;28;20066;-44
2022/09/29 05:49:27;;;;;;;12.02;10.93;;;4.30;99.90;;;;;;5042627;28;20411;-44
2022/09/29 05:51:53;;;;;;;12.90;11.70;;;4.30;99.90;;;;;;5058672;28;20064;-44
2022/09/29 05:54:20;;;;;;;29.30;12.75;;;4.30;99.90;;;;;;5038723;28;20478;-43
2022/09/29 05:56:46;;;;;;;34.65;12.98;;;4.30;99.90;;;;;;5068663;28;20056;-45
2022/09/29 05:59:12;;;;;;;23.33;13.15;;;4.40;99.90;;;;;;5048866;28;20052;-43
2022/09/29 06:01:38;;;;;;;42.33;13.25;;;4.40;99.90;;;;;;5058878;28;20040;-44
2022/09/29 06:04:04;;;;;;;37.28;13.35;;;4.50;99.90;;;;;;5057386;28;20578;-45
2022/09/29 06:06:30;;;;;;;33.95;13.20;;;4.50;99.90;;;;;;5077269;28;20558;-45
2022/09/29 06:08:57;;;;;;;42.25;14.32;;;4.60;99.90;;;;;;5052775;28;20052;-48
2022/09/29 06:11:27;;;;;;;55.50;14.70;;;4.60;99.90;;;;;;5072203;28;20040;-46
2022/09/29 06:13:54;;;;;;;62.03;14.98;;;4.70;99.90;;;;;;5052775;28;20044;-39
2022/09/29 06:16:23;;;;;;;47.58;14.60;;;4.70;99.90;;;;;;5058007;28;20079;-40
2022/09/29 06:18:49;;;;;;;59.95;14.55;;;4.80;99.90;;;;;;5040566;28;20059;-39
2022/09/29 06:21:24;;;;;;;59.70;15.27;;;4.80;99.90;;;;;;5042063;28;20700;-39
2022/09/29 06:23:52;;;;;;;41.05;13.13;;;4.80;99.90;;;;;;5053957;28;20460;-39
2022/09/29 06:26:19;;;;;;;31.85;13.90;;;4.90;99.90;;;;;;5076271;28;20122;-40
2022/09/29 06:28:46;;;;;;;37.60;13.68;;;5.00;99.90;;;;;;5059729;28;20047;-44
2022/09/29 06:31:18;;;;;;;38.05;12.63;;;5.00;99.90;;;;;;5081832;28;20707;-47
2022/09/29 06:33:47;;;;;;;;;;;5.10;99.90;;;;;;5082000;28;20055;-40
2022/09/29 06:39:04;;;;;;;25.75;13.50;;;5.20;99.90;;;;;;5078912;28;21047;-47
2022/09/29 06:41:31;;;;;;;22.95;12.73;;;5.20;99.90;;;;;;5041263;28;20044;-47
2022/09/29 06:43:57;;;;;;;26.27;12.63;;;5.40;99.90;;;;;;5077944;28;20052;-46
2022/09/29 06:46:25;;;;;;;25.70;13.05;;;5.40;99.90;;;;;;5057798;28;20044;-45
2022/09/29 06:48:55;;;;;;;25.00;13.38;;;5.50;99.90;;;;;;5046154;28;20502;-45
2022/09/29 06:51:23;;;;;;;34.92;13.02;;;5.60;99.90;;;;;;5043529;28;20127;-45
2022/09/29 06:53:50;;;;;;;35.78;13.20;;;5.60;99.90;;;;;;5044438;28;20044;-45
2022/09/29 06:56:17;;;;;;;28.58;12.50;;;5.70;99.90;;;;;;5076122;28;20044;-45
2022/09/29 06:58:45;;;;;;;27.42;12.75;;;5.90;99.90;;;;;;5079203;28;20083;-40
2022/09/29 07:01:11;;;;;;;23.90;12.73;;;5.80;99.90;;;;;;5055433;28;20480;-40
2022/09/29 07:03:38;;;;;;;21.25;12.98;;;6.00;99.90;;;;;;5072529;28;20556;-40
2022/09/29 07:06:05;;;;;;;20.20;12.75;;;6.20;99.90;;;;;;5055938;28;20048;-41
2022/09/29 07:08:35;;;;;;;17.35;13.30;;;6.40;99.90;;;;;;5075282;28;20135;-47
2022/09/29 07:11:02;;;;;;;14.90;13.30;;;6.50;99.90;;;;;;5041682;28;20044;-45
2022/09/29 07:13:29;;;;;;;14.52;13.10;;;6.60;99.90;;;;;;5060456;28;20430;-46
2022/09/29 07:15:55;;;;;;;17.33;13.40;;;6.70;99.90;;;;;;5025625;28;20769;-46
2022/09/29 07:18:21;;;;;;;15.25;13.75;;;6.90;99.90;;;;;;5057505;28;20389;-45
2022/09/29 07:20:47;;;;;;;14.55;13.15;;;7.00;99.90;;;;;;5072998;28;20124;-44
2022/09/29 07:23:14;;;;;;;16.23;13.25;;;7.20;99.90;;;;;;5075882;28;20051;-48
2022/09/29 07:25:44;;;;;;;15.95;14.25;;;7.40;99.90;;;;;;5044308;28;20043;-44
2022/09/29 07:28:10;;;;;;;13.23;11.85;;;7.50;99.90;;;;;;5070348;28;20099;-41
2022/09/29 07:30:38;;;;;;;15.85;13.07;;;7.80;99.90;;;;;;5056774;28;20082;-40
2022/09/29 07:33:04;;;;;;;14.18;12.73;;;8.00;99.90;;;;;;5039305;28;20047;-40
2022/09/29 07:35:30;;;;;;;15.07;13.07;;;8.20;99.90;;;;;;5076560;28;20048;-40
2022/09/29 07:37:56;;;;;;;12.60;11.32;;;8.30;99.90;;;;;;5053499;28;20180;-40
2022/09/29 07:40:23;;;;;;;13.13;11.85;;;8.40;99.90;;;;;;5060284;28;20058;-40
2022/09/29 07:42:50;;;;;;;14.13;12.27;;;8.50;99.90;;;;;;5075066;28;20148;-45
2022/09/29 07:45:16;;;;;;;11.88;10.77;;;8.80;99.90;;;;;;5078056;28;20048;-47
2022/09/29 07:47:42;;;;;;;11.48;10.38;;;9.20;99.90;;;;;;5059654;28;20082;-45
2022/09/29 07:50:09;;;;;;;11.77;10.68;;;9.50;99.90;;;;;;5039449;28;20093;-46
2022/09/29 07:52:35;;;;;;;11.13;10.13;;;9.80;99.90;;;;;;5077693;28;20035;-47
2022/09/29 07:55:03;;;;;;;11.70;10.60;;;10.50;99.90;;;;;;5056456;28;20562;-48
2022/09/29 07:57:29;;;;;;;10.70;9.63;;;10.90;99.90;;;;;;5077430;28;20134;-47
2022/09/29 07:59:57;;;;;;;9.48;8.48;;;11.40;99.90;;;;;;5056908;28;20054;-47
2022/09/29 08:02:24;;;;;;;9.27;8.43;;;12.00;99.90;;;;;;5024860;28;20048;-45
2022/09/29 08:04:50;;;;;;;9.88;8.98;;;12.20;99.90;;;;;;5052760;28;20067;-49
2022/09/29 08:07:16;;;;;;;10.15;9.07;;;12.50;99.90;;;;;;5053748;28;20059;-48
2022/09/29 08:09:42;;;;;;;10.75;9.65;;;12.80;99.90;;;;;;5035989;28;20048;-49
2022/09/29 08:12:08;;;;;;;10.60;9.23;;;13.00;99.90;;;;;;5031456;28;20048;-45
2022/09/29 08:14:36;;;;;;;9.60;8.70;;;13.40;99.90;;;;;;5051218;28;20051;-48
2022/09/29 08:17:02;;;;;;;9.48;8.38;;;13.90;99.90;;;;;;5055493;28;20056;-45
2022/09/29 08:19:29;;;;;;;8.98;8.07;;;14.30;99.90;;;;;;5054790;28;20048;-48
2022/09/29 08:21:55;;;;;;;8.68;7.88;;;14.60;99.90;;;;;;5069455;28;20045;-48
2022/09/29 08:24:21;;;;;;;8.07;7.28;;;15.30;99.90;;;;;;5052487;28;20049;-48
2022/09/29 08:26:47;;;;;;;8.75;7.68;;;15.40;99.90;;;;;;5031479;28;20059;-41
2022/09/29 08:29:14;;;;;;;9.02;7.20;;;15.60;99.90;;;;;;5020861;28;20068;-43
2022/09/29 08:31:42;;;;;;;7.97;7.25;;;15.70;99.90;;;;;;5052469;28;20048;-44
2022/09/29 08:34:09;;;;;;;9.30;8.35;;;15.80;99.90;;;;;;5012579;28;20473;-41
2022/09/29 08:36:35;;;;;;;7.57;6.60;;;16.20;99.90;;;;;;5041669;28;20458;-48
2022/09/29 08:39:01;;;;;;;7.53;6.72;;;16.40;99.90;;;;;;5058018;28;20131;-50
2022/09/29 08:41:33;;;;;;;8.55;7.07;;;16.20;99.90;;;;;;5056904;28;20052;-50
2022/09/29 08:44:12;;;;;;;9.60;7.85;;;16.60;99.90;;;;;;5059333;28;20060;-42
2022/09/29 08:47:03;;;;;;;7.13;6.43;;;16.70;99.90;;;;;;5047677;28;20044;-44
2022/09/29 08:49:42;;;;;;;8.18;7.30;;;16.70;99.90;;;;;;5047390;28;20052;-49
2022/09/29 08:52:40;;;;;;;7.93;7.15;;;16.80;99.90;;;;;;5058746;28;20047;-50
2022/09/29 08:55:15;;;;;;;9.07;7.18;;;17.00;99.90;;;;;;5037456;28;20125;-44
2022/09/29 08:57:45;;;;;;;7.63;6.93;;;17.30;99.90;;;;;;5044619;28;20080;-45
2022/09/29 09:00:14;;;;;;;8.33;7.53;;;17.70;99.90;;;;;;5055904;28;20048;-42
2022/09/29 09:02:52;;;;;;;7.70;6.88;;;17.90;99.90;;;;;;5054507;28;20307;-44
2022/09/29 09:05:55;;;;;;;8.10;7.30;;;18.20;99.90;;;;;;5038028;28;20404;-47
2022/09/29 09:08:41;;;;;;;8.63;7.72;;;18.60;99.90;;;;;;5056779;28;20056;-49
2022/09/29 09:11:34;;;;;;;7.63;6.93;;;18.60;99.90;;;;;;5061409;28;20483;-45
2022/09/29 09:14:21;;;;;;;7.70;6.97;;;19.20;99.90;;;;;;5052399;28;20045;-50
2022/09/29 09:16:56;;;;;;;7.20;6.50;;;19.30;99.90;;;;;;5056476;28;20087;-44
2022/09/29 09:20:12;;;;;;;9.40;6.72;;;19.70;99.90;;;;;;5060053;28;20045;-45
2022/09/29 09:22:41;;;;;;;7.65;6.10;;;19.70;99.90;;;;;;5032287;28;20686;-43
2022/09/29 09:25:18;;;;;;;6.68;5.97;;;20.10;99.90;;;;;;5062297;28;20507;-44
2022/09/29 09:27:57;;;;;;;6.80;6.00;;;19.90;99.90;;;;;;5038627;28;20671;-48
2022/09/29 09:30:29;;;;;;;7.00;6.00;;;20.20;99.90;;;;;;5055505;28;20083;-45
2022/09/29 09:33:01;;;;;;;7.65;5.88;;;20.60;99.90;;;;;;5057916;28;20041;-49
2022/09/29 09:35:48;;;;;;;7.22;5.28;;;20.60;99.90;;;;;;5058587;28;20052;-45
2022/09/29 09:38:27;;;;;;;6.28;5.68;;;20.30;99.90;;;;;;5058516;28;20053;-45
2022/09/29 09:40:57;;;;;;;7.13;5.10;;;20.60;99.90;;;;;;5051242;28;20167;-47
2022/09/29 09:43:36;;;;;;;6.30;5.70;;;20.50;99.90;;;;;;5030144;28;20055;-49
2022/09/29 09:46:15;;;;;;;6.72;5.28;;;20.60;99.90;;;;;;5056552;28;20048;-46
2022/09/29 09:48:47;;;;;;;5.85;5.07;;;21.00;99.90;;;;;;5063509;28;20049;-46
2022/09/29 09:51:24;;;;;;;5.00;4.45;;;21.30;99.90;;;;;;5050974;28;20049;-51
2022/09/29 09:53:54;;;;;;;7.15;5.05;;;21.10;99.70;;;;;;5054316;28;20040;-51
2022/09/29 09:56:37;;;;;;;5.53;5.03;;;21.00;99.10;;;;;;5055284;28;20686;-47
2022/09/29 09:59:33;;;;;;;4.97;3.85;;;21.20;99.90;;;;;;5054154;28;20113;-47
2022/09/29 10:01:59;;;;;;;4.80;3.67;;;21.40;97.70;;;;;;5052604;28;20123;-45
2022/09/29 10:04:26;;;;;;;6.20;4.43;;;21.30;99.90;;;;;;5049748;28;20480;-44
2022/09/29 10:06:53;;;;;;;4.32;3.85;;;21.70;98.70;;;;;;5055826;28;20044;-47
2022/09/29 10:09:19;;;;;;;4.45;3.97;;;21.60;98.40;;;;;;5052630;28;20414;-47
2022/09/29 10:11:45;;;;;;;6.20;4.43;;;21.60;96.50;;;;;;5056496;28;20177;-46
2022/09/29 10:14:25;;;;;;;5.63;4.18;;;21.70;97.40;;;;;;5057409;28;20047;-45
2022/09/29 10:16:54;;;;;;;5.53;4.32;;;22.30;95.30;;;;;;5052720;28;20156;-44
2022/09/29 10:19:44;;;;;;;5.05;4.32;;;22.20;95.10;;;;;;5054316;28;20053;-44
2022/09/29 10:22:17;;;;;;;4.82;3.75;;;21.70;95.70;;;;;;5052090;28;20057;-43
2022/09/29 10:24:47;;;;;;;5.13;4.63;;;21.20;94.50;;;;;;5019532;28;20048;-48
2022/09/29 10:27:24;;;;;;;5.80;4.57;;;21.20;96.60;;;;;;5055600;28;20109;-43
2022/09/29 10:29:51;;;;;;;6.00;5.32;;;21.50;93.60;;;;;;5054796;28;20148;-46
2022/09/29 10:32:35;;;;;;;6.80;5.10;;;21.70;93.70;;;;;;5050620;28;20094;-46
2022/09/29 10:35:47;;;;;;;7.57;4.93;;;22.30;92.90;;;;;;5049667;28;20163;-46
2022/09/29 10:38:26;;;;;;;4.97;4.47;;;22.10;92.00;;;;;;5036865;28;20044;-45
2022/09/29 10:41:06;;;;;;;4.40;3.97;;;22.30;92.10;;;;;;5036662;28;20044;-43
2022/09/29 10:43:41;;;;;;;6.07;4.28;;;22.60;91.80;;;;;;5055486;28;20399;-43
2022/09/29 10:46:45;;;;;;;6.10;4.00;;;22.80;88.10;;;;;;5057200;28;20144;-44
2022/09/29 10:49:21;;;;;;;4.50;4.05;;;22.20;86.20;;;;;;4978211;28;20469;-44
2022/09/29 10:51:48;;;;;;;4.97;4.00;;;22.80;90.40;;;;;;4981127;28;20050;-47
2022/09/29 10:54:16;;;;;;;4.65;2.90;;;22.70;88.90;;;;;;5024498;28;20063;-46
2022/09/29 10:56:48;;;;;;;3.95;3.30;;;22.70;88.60;;;;;;5032510;28;20052;-44
2022/09/29 10:59:16;;;;;;;4.80;3.90;;;22.90;81.80;;;;;;5055143;28;20055;-48
2022/09/29 11:01:58;;;;;;;4.43;2.92;;;22.80;80.90;;;;;;5036050;28;20048;-43
2022/09/29 11:04:31;;;;;;;3.83;3.10;;;23.00;80.30;;;;;;5038798;28;20124;-43
2022/09/29 11:07:14;;;;;;;5.10;3.30;;;23.00;80.40;;;;;;5037683;28;20132;-43
2022/09/29 11:09:43;;;;;;;5.22;3.60;;;22.90;76.90;;;;;;5049848;28;20044;-45
2022/09/29 11:12:33;;;;;;;4.70;3.22;;;22.60;78.30;;;;;;5052378;28;20186;-44
2022/09/29 11:15:01;;;;;;;3.33;2.97;;;23.10;77.40;;;;;;5068488;28;20103;-47
2022/09/29 11:17:37;;;;;;;4.93;3.55;;;23.60;79.00;;;;;;5054910;28;20055;-46
2022/09/29 11:20:10;;;;;;;4.97;3.47;;;23.40;74.00;;;;;;5051394;28;20048;-46
2022/09/29 11:22:54;;;;;;;3.65;3.15;;;23.00;73.90;;;;;;5052718;28;20048;-43
2022/09/29 11:25:38;;;;;;;4.03;3.63;;;23.30;76.60;;;;;;5057111;28;20053;-45
2022/09/29 11:28:23;;;;;;;4.15;3.30;;;23.80;73.00;;;;;;5053481;28;20693;-44
2022/09/29 11:31:11;;;;;;;3.83;3.40;;;23.90;73.40;;;;;;5021818;28;20758;-45
2022/09/29 11:33:58;;;;;;;3.75;3.00;;;24.20;70.60;;;;;;5048495;28;20097;-48
2022/09/29 11:36:56;;;;;;;4.18;2.83;;;24.70;66.30;;;;;;5057342;28;20537;-48
2022/09/29 11:39:39;;;;;;;3.50;3.00;;;24.90;66.10;;;;;;5052085;28;20036;-43
2022/09/29 11:42:36;;;;;;;2.88;2.08;;;24.80;66.10;;;;;;5013550;28;20040;-43
2022/09/29 11:45:06;;;;;;;3.35;2.03;;;25.20;65.90;;;;;;5051824;28;20049;-44
2022/09/29 11:47:41;;;;;;;2.40;1.80;;;25.30;64.20;;;;;;5054845;28;20052;-44
2022/09/29 11:50:26;;;;;;;2.78;1.80;;;25.10;62.20;;;;;;5056350;28;20406;-47
2022/09/29 11:53:01;;;;;;;2.83;2.00;;;25.20;59.80;;;;;;5053290;28;20166;-45
2022/09/29 11:55:47;;;;;;;1.83;1.20;;;24.70;60.70;;;;;;5053915;28;20123;-43
2022/09/29 11:58:34;;;;;;;1.83;0.95;;;23.10;60.30;;;;;;5055923;28;20541;-43
2022/09/29 12:01:38;;;;;;;2.10;1.27;;;22.80;62.60;;;;;;5054160;28;20049;-45
2022/09/29 12:04:33;;;;;;;1.55;1.33;;;22.90;62.40;;;;;;5014367;28;20064;-41
2022/09/29 12:07:07;;;;;;;1.38;0.98;;;22.10;64.00;;;;;;5053917;28;20048;-45
2022/09/29 12:09:36;;;;;;;2.53;1.08;;;21.10;67.40;;;;;;5044937;28;20372;-49
2022/09/29 12:12:21;;;;;;;1.20;0.57;;;21.20;68.40;;;;;;5066061;28;20471;-43
2022/09/29 12:15:03;;;;;;;1.25;0.50;;;22.20;64.90;;;;;;5060915;28;20117;-45
2022/09/29 12:17:36;;;;;;;0.70;0.50;;;22.80;63.30;;;;;;5073829;28;20083;-45
2022/09/29 12:20:14;;;;;;;1.45;0.88;;;22.40;61.90;;;;;;5070965;28;20460;-44
2022/09/29 12:22:45;;;;;;;1.75;1.40;;;22.50;62.40;;;;;;5063646;28;20143;-42
2022/09/29 12:25:26;;;;;;;4.13;1.50;;;22.50;64.10;;;;;;5039821;28;20055;-51
2022/09/29 12:27:58;;;;;;;2.50;1.52;;;23.50;64.90;;;;;;5058657;28;20220;-43
2022/09/29 12:30:28;;;;;;;2.25;1.35;;;23.40;61.60;;;;;;5041181;28;20051;-41
2022/09/29 12:33:20;;;;;;;2.22;1.40;;;23.80;61.60;;;;;;5061869;28;20410;-48
2022/09/29 12:36:43;;;;;;;2.35;1.80;;;23.70;60.50;;;;;;5055288;28;20078;-50
2022/09/29 12:39:47;;;;;;;4.03;1.23;;;24.50;59.50;;;;;;5018465;28;20128;-50
2022/09/29 12:42:51;;;;;;;4.40;2.08;;;25.00;57.20;;;;;;5060485;28;20049;-47
2022/09/29 12:45:29;;;;;;;4.88;1.70;;;24.30;58.00;;;;;;5062982;28;20063;-49
2022/09/29 12:47:58;;;;;;;2.13;1.40;;;24.70;60.40;;;;;;5023046;28;21807;-50
2022/09/29 12:50:31;;;;;;;2.22;1.23;;;25.20;59.50;;;;;;5059692;28;20041;-48
2022/09/29 12:53:38;;;;;;;2.45;1.30;;;25.40;58.40;;;;;;5058594;28;20543;-49
2022/09/29 12:56:33;;;;;;;1.42;0.95;;;24.80;55.50;;;;;;5063091;28;20044;-47
2022/09/29 12:59:03;;;;;;;2.75;1.00;;;25.10;56.00;;;;;;5066432;28;20050;-50
2022/09/29 13:01:31;;;;;;;3.40;1.25;;;25.00;55.10;;;;;;5057124;28;20355;-46
2022/09/29 13:04:15;;;;;;;2.17;1.10;;;25.90;55.50;;;;;;5069784;28;20105;-49
2022/09/29 13:07:08;;;;;;;2.85;1.10;;;26.00;55.40;;;;;;5066554;28;20058;-48
2022/09/29 13:10:07;;;;;;;1.55;1.05;;;26.10;52.80;;;;;;5080359;28;20051;-50
2022/09/29 13:12:33;;;;;;;2.00;1.40;;;26.40;54.70;;;;;;5046502;28;20416;-48
2022/09/29 13:15:08;;;;;;;3.17;1.58;;;25.50;55.60;;;;;;5080594;28;20481;-47
2022/09/29 13:17:50;;;;;;;1.67;1.40;;;25.80;55.60;;;;;;5077081;28;20437;-46
2022/09/29 13:20:35;;;;;;;2.08;1.40;;;25.70;54.30;;;;;;5062696;28;20044;-42